METAR Data

Data at: 1122 UTC 21 Apr 2021

METAR for:KBID (Block Island Arpt, RI, US)
Text:KBID 211056Z AUTO 20009KT 10SM CLR 09/08 A2984 RMK AO2 SLP106 T00940083
Temperature: 9.4°C ( 49°F)
Dewpoint: 8.3°C ( 47°F) [RH = 93%]
Pressure (altimeter):29.84 inches Hg (1010.6 mb) [Sea level pressure: 1010.6 mb]
Winds:from the SSW (200 degrees) at 10 MPH (9 knots; 4.6 m/s)
Visibility:10 or more sm (16+ km)
Ceiling:at least 12,000 feet AGL
Clouds:sky clear below 12,000 feet AGL
QC Flag:automated observation with no human augmentation